KOLM

Olympia Regional Airport

Olympia, Washington, USA
METAR KOLM 141154Z AUTO 00000KT 10SM CLR 02/02 A2974 RMK AO2 SLP073 70001 T00220017 10067 20022 58028
Observed Flight Rules
Dec-14 @ 11:54 UTC (40 minutes ago) Visual Flight Rules
Visibility Clouds
10 miles
  • Clear skies
Temperatures Readings
Current 2°C / 36°F
Dewpoint 2°C / 36°F
Humidity 100%
Altimeter 29.74" Hg
Pressure 1007.3 hPa
Elevation 58
METAR KOLM 141154Z AUTO 00000KT 10SM CLR 02/02 A2974 RMK AO2 SLP073 70001 T00220017 10067 20022 58028
Observed Flight Rules
Dec-14 @ 11:54 UTC
(40 minutes ago)
VFR
Clouds
  • Clear skies
Temperature Dewpoint
2°C / 36°F 2°C / 36°F
Humidity Altimeter Pressure
100% 29.74" Hg 1007.3 hPa